createdAt,value
2022-11-03T00:01:48.668Z,3.65
2022-11-03T00:04:18.642Z,2.88
2022-11-03T00:06:49.303Z,2.38
2022-11-03T00:09:18.913Z,3.07
2022-11-03T00:11:48.060Z,2.90
2022-11-03T00:14:15.063Z,2.63
2022-11-03T00:16:42.069Z,2.58
2022-11-03T00:19:10.290Z,3.50
2022-11-03T00:21:38.477Z,3.00
2022-11-03T00:24:06.228Z,2.95
2022-11-03T00:26:35.798Z,2.78
2022-11-03T00:29:09.522Z,3.83
2022-11-03T00:31:39.273Z,3.30
2022-11-03T00:34:07.250Z,3.53
2022-11-03T00:36:42.967Z,3.33
2022-11-03T00:39:11.045Z,2.60
2022-11-03T00:41:38.592Z,2.90
2022-11-03T00:44:05.678Z,3.38
2022-11-03T00:46:35.642Z,2.47
2022-11-03T00:49:04.348Z,2.92
2022-11-03T00:51:31.306Z,2.60
2022-11-03T00:54:00.829Z,3.53
2022-11-03T00:56:37.661Z,4.03
2022-11-03T00:59:06.862Z,2.83
2022-11-03T01:01:45.303Z,3.22
2022-11-03T01:04:33.465Z,3.20
2022-11-03T01:07:01.835Z,2.53
2022-11-03T01:09:38.375Z,2.92
2022-11-03T01:12:11.278Z,3.23
2022-11-03T01:14:52.808Z,2.90
2022-11-03T01:17:25.298Z,2.72
2022-11-03T01:19:53.111Z,2.60
2022-11-03T01:22:21.018Z,3.00
2022-11-03T01:24:48.274Z,2.33
2022-11-03T01:27:18.605Z,3.33
2022-11-03T01:29:45.902Z,3.03
2022-11-03T01:32:13.310Z,2.80
2022-11-03T01:34:40.431Z,2.80
2022-11-03T01:37:07.455Z,2.93
2022-11-03T01:39:34.584Z,3.30
2022-11-03T01:42:01.567Z,2.45
2022-11-03T01:44:40.143Z,3.03
2022-11-03T01:47:14.688Z,3.10
2022-11-03T01:49:52.827Z,2.67
2022-11-03T01:52:39.130Z,2.70
2022-11-03T01:55:21.983Z,3.20
2022-11-03T01:58:02.650Z,2.92
2022-11-03T02:00:29.738Z,3.45
2022-11-03T02:02:57.090Z,2.77
2022-11-03T02:05:26.189Z,2.70
2022-11-03T02:08:25.184Z,2.67
2022-11-03T02:10:52.173Z,2.33
2022-11-03T02:13:25.364Z,3.67
2022-11-03T02:15:59.105Z,2.57
2022-11-03T02:18:34.786Z,2.58
2022-11-03T02:21:35.790Z,2.75
2022-11-03T02:24:23.495Z,2.95
2022-11-03T02:26:56.011Z,3.35
2022-11-03T02:29:23.150Z,2.40
2022-11-03T02:31:58.809Z,2.83
2022-11-03T02:34:45.809Z,3.15
2022-11-03T02:37:21.621Z,3.00
2022-11-03T02:39:57.116Z,2.50
2022-11-03T02:42:25.646Z,2.63
2022-11-03T02:44:57.964Z,3.00
2022-11-03T02:47:28.312Z,2.92
2022-11-03T02:52:45.737Z,3.25
2022-11-03T02:55:39.417Z,3.73
2022-11-03T02:58:14.771Z,3.78
2022-11-03T03:00:56.499Z,2.75
2022-11-03T03:03:37.017Z,3.10
2022-11-03T03:06:22.060Z,3.20
2022-11-03T03:08:56.463Z,2.37
2022-11-03T03:11:37.508Z,3.08
2022-11-03T03:14:14.689Z,2.75
2022-11-03T03:16:57.077Z,2.60
2022-11-03T03:19:42.278Z,3.20
2022-11-03T03:22:47.966Z,3.13
2022-11-03T03:25:36.297Z,2.78
2022-11-03T03:28:24.495Z,2.95
2022-11-03T03:30:55.554Z,3.35
2022-11-03T03:33:24.770Z,3.38
2022-11-03T03:35:53.537Z,2.73
2022-11-03T03:38:30.622Z,2.65
2022-11-03T03:41:03.480Z,2.92
2022-11-03T03:43:34.832Z,3.17
2022-11-03T03:46:08.166Z,3.05
2022-11-03T03:48:35.271Z,2.30
2022-11-03T03:51:02.827Z,2.97
2022-11-03T03:53:30.921Z,2.80
2022-11-03T03:55:59.414Z,2.55
2022-11-03T03:58:26.425Z,2.88
2022-11-03T04:00:53.367Z,2.83
2022-11-03T04:03:23.913Z,2.60
2022-11-03T04:05:51.574Z,2.72
2022-11-03T04:08:19.382Z,3.17
2022-11-03T04:11:05.406Z,2.42
2022-11-03T04:13:52.009Z,2.67
2022-11-03T04:16:37.466Z,3.00
2022-11-03T04:19:23.305Z,2.53
2022-11-03T04:22:09.033Z,2.70
2022-11-03T04:24:35.914Z,3.85
2022-11-03T04:27:26.551Z,3.10
2022-11-03T04:30:09.688Z,2.97
2022-11-03T04:32:37.616Z,3.05
2022-11-03T04:35:19.086Z,2.78
2022-11-03T04:37:51.309Z,3.40
2022-11-03T04:40:18.611Z,2.87
2022-11-03T04:42:46.221Z,3.22
2022-11-03T04:45:28.630Z,2.83
2022-11-03T04:47:55.635Z,3.20
2022-11-03T04:50:24.381Z,3.50
2022-11-03T04:53:00.462Z,2.83
2022-11-03T04:55:27.626Z,3.03
2022-11-03T04:58:22.946Z,2.67
2022-11-03T05:00:57.262Z,3.38
2022-11-03T05:03:29.520Z,3.00
2022-11-03T05:05:57.643Z,2.50
2022-11-03T05:08:25.379Z,2.95
2022-11-03T05:10:52.734Z,3.08
2022-11-03T05:13:26.195Z,2.85
2022-11-03T05:16:03.932Z,2.80
2022-11-03T05:18:39.204Z,3.33
2022-11-03T05:21:21.076Z,3.05
2022-11-03T05:24:02.988Z,3.05
2022-11-03T05:26:39.275Z,2.90
2022-11-03T05:29:30.383Z,3.13
2022-11-03T05:31:57.549Z,2.33
2022-11-03T05:34:27.394Z,2.83
2022-11-03T05:36:54.618Z,4.60
2022-11-03T05:39:26.578Z,3.42
2022-11-03T05:41:53.541Z,3.35
2022-11-03T05:44:26.936Z,2.90
2022-11-03T05:46:53.832Z,2.80
2022-11-03T05:49:21.284Z,3.08
2022-11-03T05:51:48.413Z,4.10
2022-11-03T05:54:26.372Z,3.70
2022-11-03T05:56:54.938Z,2.77
2022-11-03T05:59:26.823Z,3.70
2022-11-03T06:01:55.642Z,3.08
2022-11-03T06:04:33.346Z,3.08
2022-11-03T06:07:37.650Z,3.40
2022-11-03T06:10:23.960Z,3.43
2022-11-03T06:12:51.178Z,3.13
2022-11-03T06:15:34.974Z,3.45
2022-11-03T06:18:16.835Z,2.42
2022-11-03T06:20:52.878Z,2.72
2022-11-03T06:23:21.639Z,2.90
2022-11-03T06:25:52.460Z,2.72
2022-11-03T06:28:26.883Z,3.25
2022-11-03T06:30:54.035Z,2.95
2022-11-03T06:33:33.960Z,4.20
2022-11-03T06:36:18.349Z,3.17
2022-11-03T06:38:52.875Z,3.15
2022-11-03T06:41:29.959Z,2.88
2022-11-03T06:44:00.674Z,2.78
2022-11-03T06:46:28.116Z,3.45
2022-11-03T06:48:59.106Z,3.07
2022-11-03T06:51:30.987Z,3.05
2022-11-03T06:54:01.751Z,3.08
2022-11-03T06:56:31.872Z,3.53
2022-11-03T06:58:58.791Z,2.45
2022-11-03T07:01:31.423Z,2.80
2022-11-03T07:04:02.379Z,3.45
2022-11-03T07:06:36.640Z,3.20
2022-11-03T07:09:09.679Z,3.00
2022-11-03T07:11:45.111Z,3.10
2022-11-03T07:14:19.964Z,3.20
2022-11-03T07:16:48.830Z,2.80
2022-11-03T07:19:21.383Z,2.90
2022-11-03T07:21:59.733Z,3.60
2022-11-03T07:24:30.334Z,2.90
2022-11-03T07:27:12.121Z,3.17
2022-11-03T07:29:39.202Z,2.72
2022-11-03T07:32:16.266Z,3.08
2022-11-03T07:34:43.151Z,2.72
2022-11-03T07:37:23.225Z,3.78
2022-11-03T07:39:51.129Z,3.87
2022-11-03T07:42:24.025Z,3.50
2022-11-03T07:44:52.357Z,3.58
2022-11-03T07:47:29.168Z,3.45
2022-11-03T07:49:56.619Z,3.35
2022-11-03T07:52:26.046Z,3.60
2022-11-03T07:54:57.129Z,3.53
2022-11-03T07:57:32.155Z,3.28
2022-11-03T08:00:10.305Z,3.45
2022-11-03T08:02:39.488Z,2.95
2022-11-03T08:05:08.407Z,3.60
2022-11-03T08:07:35.340Z,3.08
2022-11-03T08:10:02.314Z,3.22
2022-11-03T08:12:29.223Z,2.90
2022-11-03T08:14:56.108Z,3.35
2022-11-03T08:17:23.069Z,2.87
2022-11-03T08:19:50.102Z,2.78
2022-11-03T08:22:17.013Z,3.15
2022-11-03T08:24:44.105Z,3.33
2022-11-03T08:27:11.054Z,3.05
2022-11-03T08:29:37.944Z,2.50
2022-11-03T08:32:05.176Z,2.63
2022-11-03T08:34:32.048Z,3.10
2022-11-03T08:36:58.915Z,3.08
2022-11-03T08:39:25.806Z,3.42
2022-11-03T08:41:52.673Z,3.07
2022-11-03T08:44:19.554Z,3.92
2022-11-03T08:46:46.478Z,3.13
2022-11-03T08:49:13.414Z,2.97
2022-11-03T08:51:44.405Z,3.58
2022-11-03T08:54:11.752Z,3.00
2022-11-03T08:56:38.694Z,3.13
2022-11-03T08:59:05.568Z,3.30
2022-11-03T09:01:32.749Z,3.30
2022-11-03T09:03:59.786Z,3.58
2022-11-03T09:06:26.715Z,3.90
2022-11-03T09:11:40.519Z,3.17
2022-11-03T09:14:07.439Z,3.20
2022-11-03T09:16:34.325Z,2.85
2022-11-03T09:19:01.215Z,3.30
2022-11-03T09:21:28.100Z,2.97
2022-11-03T09:23:55.119Z,3.83
2022-11-03T09:26:22.190Z,3.45
2022-11-03T09:28:49.526Z,2.67
2022-11-03T09:31:17.127Z,3.27
2022-11-03T09:33:44.094Z,3.00
2022-11-03T09:36:11.154Z,3.72
2022-11-03T09:38:38.035Z,3.22
2022-11-03T09:41:13.962Z,3.03
2022-11-03T09:43:53.961Z,3.50
2022-11-03T09:46:20.887Z,3.30
2022-11-03T09:48:47.893Z,3.40
2022-11-03T09:51:20.994Z,3.10
2022-11-03T09:53:48.834Z,2.85
2022-11-03T09:56:22.690Z,2.20
2022-11-03T09:58:54.006Z,3.40
2022-11-03T10:01:22.580Z,3.33
2022-11-03T10:03:49.914Z,3.03
2022-11-03T10:06:17.470Z,3.22
2022-11-03T10:08:46.658Z,2.67
2022-11-03T10:11:14.858Z,3.00
2022-11-03T10:13:49.919Z,2.90
2022-11-03T10:16:21.388Z,3.30
2022-11-03T10:18:49.377Z,2.72
2022-11-03T10:21:20.351Z,2.80
2022-11-03T10:23:50.164Z,3.42
2022-11-03T10:26:19.600Z,3.15
2022-11-03T10:29:09.126Z,3.38
2022-11-03T10:31:39.462Z,3.22
2022-11-03T10:34:37.356Z,3.33
2022-11-03T10:37:22.665Z,3.35
2022-11-03T10:39:52.814Z,3.35
2022-11-03T10:42:24.582Z,3.20
2022-11-03T10:44:54.804Z,3.25
2022-11-03T10:47:34.135Z,2.90
2022-11-03T10:50:25.082Z,2.70
2022-11-03T10:52:52.928Z,2.70
2022-11-03T10:55:25.004Z,2.78
2022-11-03T10:57:55.600Z,3.08
2022-11-03T11:00:23.913Z,2.87
2022-11-03T11:02:56.666Z,3.63
2022-11-03T11:05:24.860Z,3.10
2022-11-03T11:07:54.007Z,2.45
2022-11-03T11:10:25.242Z,2.67
2022-11-03T11:13:22.983Z,3.13
2022-11-03T11:15:57.923Z,2.50
2022-11-03T11:18:30.637Z,3.22
2022-11-03T11:21:02.092Z,2.90
2022-11-03T11:23:29.025Z,2.72
2022-11-03T11:26:11.129Z,2.93
2022-11-03T11:28:40.814Z,2.65
2022-11-03T11:31:32.529Z,3.03
2022-11-03T11:34:18.256Z,2.45
2022-11-03T11:37:03.731Z,3.15
2022-11-03T11:39:31.079Z,2.83
2022-11-03T11:42:21.733Z,2.88
2022-11-03T11:44:56.935Z,2.88
2022-11-03T11:47:43.510Z,2.58
2022-11-03T11:50:20.969Z,2.30
2022-11-03T11:53:10.933Z,2.37
2022-11-03T11:55:48.685Z,2.63
2022-11-03T11:58:29.889Z,3.13
2022-11-03T12:01:06.614Z,2.63
2022-11-03T12:03:45.281Z,2.67
2022-11-03T12:06:15.871Z,2.50
2022-11-03T12:08:43.927Z,2.72
2022-11-03T12:11:13.226Z,2.20
2022-11-03T12:13:52.426Z,2.55
2022-11-03T12:16:31.875Z,2.50
2022-11-03T12:19:39.709Z,2.73
2022-11-03T12:22:26.163Z,2.83
2022-11-03T12:25:00.781Z,2.85
2022-11-03T12:27:27.625Z,2.60
2022-11-03T12:29:55.643Z,2.33
2022-11-03T12:32:33.588Z,1.97
2022-11-03T12:35:03.459Z,2.38
2022-11-03T12:37:30.334Z,2.30
2022-11-03T12:39:57.191Z,2.42
2022-11-03T12:42:25.185Z,2.40
2022-11-03T12:44:52.947Z,2.30
2022-11-03T12:47:20.642Z,2.08
2022-11-03T12:49:47.672Z,2.17
2022-11-03T12:52:14.946Z,2.08
2022-11-03T12:54:44.954Z,1.92
2022-11-03T12:57:11.876Z,2.03
2022-11-03T12:59:38.886Z,2.22
2022-11-03T13:02:06.950Z,2.38
2022-11-03T13:04:33.936Z,2.30
2022-11-03T13:07:00.823Z,2.20
2022-11-03T13:09:27.699Z,1.80
2022-11-03T13:12:13.303Z,2.20
2022-11-03T13:14:44.429Z,2.50
2022-11-03T13:17:13.233Z,2.10
2022-11-03T13:19:40.081Z,2.20
2022-11-03T13:22:06.943Z,1.90
2022-11-03T13:24:33.876Z,2.40
2022-11-03T13:27:00.746Z,2.05
2022-11-03T13:29:32.429Z,1.85
2022-11-03T13:32:03.419Z,1.75
2022-11-03T13:34:30.901Z,2.30
2022-11-03T13:36:58.655Z,2.33
2022-11-03T13:39:25.687Z,2.33
2022-11-03T13:41:52.654Z,2.28
2022-11-03T13:44:19.779Z,1.90
2022-11-03T13:46:46.667Z,2.07
2022-11-03T13:52:00.431Z,2.03
2022-11-03T14:00:03.634Z,2.10
2022-11-03T14:05:19.582Z,1.85
2022-11-03T14:07:46.516Z,2.08
2022-11-03T14:10:13.408Z,2.20
2022-11-03T14:12:40.282Z,1.83
2022-11-03T14:15:12.302Z,2.10
2022-11-03T14:17:40.372Z,2.05
2022-11-03T14:20:12.211Z,2.30
2022-11-03T14:22:40.767Z,2.50
2022-11-03T14:25:08.740Z,2.03
2022-11-03T14:27:35.743Z,2.65
2022-11-03T14:30:03.065Z,2.88
2022-11-03T14:32:29.972Z,2.63
2022-11-03T14:34:56.948Z,2.58
2022-11-03T14:37:25.328Z,2.00
2022-11-03T14:39:52.390Z,2.47
2022-11-03T14:42:19.293Z,2.25
2022-11-03T14:44:47.293Z,2.30
2022-11-03T14:47:18.039Z,2.75
2022-11-03T14:49:46.511Z,2.53
2022-11-03T14:52:14.817Z,3.15
2022-11-03T14:54:42.918Z,3.25
2022-11-03T14:57:10.109Z,2.80
2022-11-03T14:59:37.067Z,2.83
2022-11-03T15:02:05.801Z,2.33
2022-11-03T15:04:32.945Z,2.80
2022-11-03T15:06:59.967Z,3.00
2022-11-03T15:09:26.921Z,2.63
2022-11-03T15:11:53.851Z,2.80
2022-11-03T15:14:20.783Z,2.90
2022-11-03T15:16:47.999Z,3.05
2022-11-03T15:19:14.941Z,3.05
2022-11-03T15:21:41.881Z,2.72
2022-11-03T15:26:55.826Z,2.67
2022-11-03T15:29:23.866Z,2.60
2022-11-03T15:31:50.771Z,2.65
2022-11-03T15:34:18.017Z,2.92
2022-11-03T15:36:45.117Z,2.63
2022-11-03T15:39:13.088Z,2.80
2022-11-03T15:41:40.002Z,2.70
2022-11-03T15:44:06.895Z,3.35
2022-11-03T15:46:35.346Z,2.70
2022-11-03T15:49:02.968Z,2.88
2022-11-03T15:51:29.846Z,2.83
2022-11-03T15:53:58.912Z,3.38
2022-11-03T15:56:27.513Z,3.50
2022-11-03T15:58:54.743Z,3.00
2022-11-03T16:01:21.849Z,3.22
2022-11-03T16:03:48.872Z,3.30
2022-11-03T16:06:16.241Z,3.10
2022-11-03T16:08:43.431Z,3.17
2022-11-03T16:11:10.288Z,3.38
2022-11-03T16:13:37.159Z,3.38
2022-11-03T16:16:04.283Z,3.13
2022-11-03T16:18:31.184Z,2.88
2022-11-03T16:20:58.076Z,3.30
2022-11-03T16:23:24.972Z,3.30
2022-11-03T16:25:51.921Z,4.00
2022-11-03T16:28:18.798Z,3.73
2022-11-03T16:30:51.116Z,4.18
2022-11-03T16:33:20.926Z,4.75
2022-11-03T16:35:47.823Z,3.78
2022-11-03T16:38:15.276Z,3.40
2022-11-03T16:40:42.967Z,3.20
2022-11-03T16:43:11.861Z,3.55
2022-11-03T16:45:39.065Z,3.30
2022-11-03T16:48:07.691Z,3.58
2022-11-03T16:50:34.874Z,3.75
2022-11-03T16:53:02.013Z,2.77
2022-11-03T16:55:28.887Z,3.63
2022-11-03T16:57:55.933Z,3.88
2022-11-03T17:00:24.038Z,3.70
2022-11-03T17:02:50.998Z,4.38
2022-11-03T17:05:20.633Z,3.60
2022-11-03T17:07:53.246Z,3.70
2022-11-03T17:10:21.285Z,4.03
2022-11-03T17:12:48.264Z,3.67
2022-11-03T17:15:15.372Z,4.25
2022-11-03T17:17:42.290Z,4.13
2022-11-03T17:20:11.694Z,4.57
2022-11-03T17:22:38.769Z,4.32
2022-11-03T17:25:09.359Z,4.78
2022-11-03T17:27:47.926Z,4.97
2022-11-03T17:30:21.651Z,4.70
2022-11-03T17:32:50.741Z,5.28
2022-11-03T17:35:39.602Z,5.75
2022-11-03T17:38:13.742Z,4.60
2022-11-03T17:40:43.039Z,4.63
2022-11-03T17:43:24.714Z,5.30
2022-11-03T17:45:52.121Z,4.93
2022-11-03T17:48:19.475Z,5.40
2022-11-03T17:50:49.918Z,5.75
2022-11-03T17:53:27.278Z,6.07
2022-11-03T17:56:28.045Z,5.37
2022-11-03T17:58:46.557Z,5.47
2022-11-03T18:01:27.140Z,6.60
2022-11-03T18:03:54.500Z,6.50
2022-11-03T18:06:22.297Z,6.63
2022-11-03T18:08:50.110Z,5.57
2022-11-03T18:11:45.217Z,6.53
2022-11-03T18:14:12.698Z,6.63
2022-11-03T18:16:40.616Z,7.47
2022-11-03T18:19:15.351Z,7.30
2022-11-03T18:21:42.656Z,6.30
2022-11-03T18:24:18.195Z,8.25
2022-11-03T18:26:45.209Z,7.40
2022-11-03T18:29:12.093Z,8.30
2022-11-03T18:31:49.503Z,8.98
2022-11-03T18:34:22.769Z,9.23
2022-11-03T18:36:49.933Z,9.40
2022-11-03T18:39:25.530Z,8.77
2022-11-03T18:41:52.683Z,8.60
2022-11-03T18:44:29.008Z,9.40
2022-11-03T18:46:56.882Z,9.23
2022-11-03T18:49:27.042Z,9.18
2022-11-03T18:52:03.528Z,9.07
2022-11-03T18:54:33.866Z,10.60
2022-11-03T18:57:01.991Z,10.02
2022-11-03T18:59:37.428Z,9.93
2022-11-03T19:02:16.360Z,10.57
2022-11-03T19:04:43.551Z,9.63
2022-11-03T19:07:14.227Z,9.93
2022-11-03T19:09:42.435Z,10.13
2022-11-03T19:12:13.852Z,8.43
2022-11-03T19:14:44.823Z,9.73
2022-11-03T19:17:23.006Z,10.35
2022-11-03T19:19:52.511Z,8.68
2022-11-03T19:22:22.241Z,10.57
2022-11-03T19:24:49.519Z,8.87
2022-11-03T19:27:25.706Z,9.60
2022-11-03T19:29:52.979Z,11.00
2022-11-03T19:32:25.032Z,10.45
2022-11-03T19:34:59.793Z,10.45
2022-11-03T19:37:34.052Z,8.83
2022-11-03T19:40:02.421Z,8.95
2022-11-03T19:42:30.854Z,10.02
2022-11-03T19:44:59.953Z,9.95
2022-11-03T19:47:32.782Z,10.77
2022-11-03T19:50:02.219Z,10.10
2022-11-03T19:52:31.498Z,9.88
2022-11-03T19:55:02.257Z,10.88
2022-11-03T19:57:29.183Z,9.18
2022-11-03T19:59:58.821Z,10.07
2022-11-03T20:02:28.044Z,10.73
2022-11-03T20:04:55.257Z,9.63
2022-11-03T20:07:28.135Z,9.65
2022-11-03T20:09:58.487Z,8.52
2022-11-03T20:12:25.500Z,8.45
2022-11-03T20:14:52.427Z,7.77
2022-11-03T20:17:22.732Z,7.65
2022-11-03T20:19:49.957Z,8.55
2022-11-03T20:22:24.071Z,9.35
2022-11-03T20:24:55.545Z,8.02
2022-11-03T20:27:22.477Z,8.03
2022-11-03T20:29:49.475Z,7.95
2022-11-03T20:32:16.642Z,8.40
2022-11-03T20:34:43.619Z,7.97
2022-11-03T20:37:18.795Z,9.05
2022-11-03T20:39:47.342Z,7.43
2022-11-03T20:42:26.053Z,7.65
2022-11-03T20:44:53.207Z,8.73
2022-11-03T20:47:20.799Z,7.53
2022-11-03T20:49:48.346Z,7.80
2022-11-03T20:52:16.465Z,7.90
2022-11-03T20:54:43.888Z,7.97
2022-11-03T20:57:14.261Z,9.50
2022-11-03T20:59:41.929Z,9.23
2022-11-03T21:02:12.323Z,9.98
2022-11-03T21:04:40.184Z,9.97
2022-11-03T21:07:09.196Z,9.63
2022-11-03T21:09:36.045Z,11.38
2022-11-03T21:12:03.141Z,9.88
2022-11-03T21:14:32.730Z,11.57
2022-11-03T21:17:18.366Z,11.50
2022-11-03T21:20:03.533Z,11.48
2022-11-03T21:22:55.646Z,11.70
2022-11-03T21:25:24.383Z,11.88
2022-11-03T21:27:53.498Z,11.70
2022-11-03T21:30:20.672Z,11.70
2022-11-03T21:32:47.907Z,9.40
2022-11-03T21:35:19.264Z,9.02
2022-11-03T21:37:46.233Z,9.00
2022-11-03T21:40:13.170Z,9.52
2022-11-03T21:42:58.720Z,9.53
2022-11-03T21:45:26.082Z,8.70
2022-11-03T21:48:13.878Z,9.27
2022-11-03T21:50:42.446Z,8.10
2022-11-03T21:53:10.435Z,6.60
2022-11-03T21:55:37.918Z,7.80
2022-11-03T21:58:04.914Z,8.57
2022-11-03T22:00:32.487Z,7.00
2022-11-03T22:03:00.387Z,5.72
2022-11-03T22:05:27.992Z,5.32
2022-11-03T22:07:55.092Z,4.57
2022-11-03T22:10:22.626Z,4.18
2022-11-03T22:12:49.524Z,4.18
2022-11-03T22:15:36.906Z,3.17
2022-11-03T22:18:06.247Z,2.78
2022-11-03T22:20:52.124Z,2.53
2022-11-03T22:23:37.726Z,2.33
2022-11-03T22:26:23.554Z,3.35
2022-11-03T22:29:10.391Z,3.03
2022-11-03T22:31:43.482Z,4.00
2022-11-03T22:34:29.379Z,4.20
2022-11-03T22:36:56.468Z,3.65
2022-11-03T22:39:41.896Z,3.78
2022-11-03T22:42:30.846Z,4.95
2022-11-03T22:45:16.260Z,4.32
2022-11-03T22:47:43.164Z,4.67
2022-11-03T22:50:10.266Z,5.38
2022-11-03T22:52:37.219Z,4.90
2022-11-03T22:55:04.778Z,4.38
2022-11-03T22:57:31.695Z,4.82
2022-11-03T22:59:58.570Z,4.63
2022-11-03T23:02:25.720Z,4.50
2022-11-03T23:04:52.677Z,4.60
2022-11-03T23:07:19.612Z,3.58
2022-11-03T23:09:46.540Z,4.80
2022-11-03T23:12:13.470Z,4.10
2022-11-03T23:14:59.134Z,4.75
2022-11-03T23:17:45.972Z,3.83
2022-11-03T23:20:32.685Z,3.58
2022-11-03T23:22:59.567Z,3.95
2022-11-03T23:25:26.442Z,3.40
2022-11-03T23:27:53.658Z,3.58
2022-11-03T23:30:20.557Z,3.45
2022-11-03T23:32:47.414Z,3.00
2022-11-03T23:35:14.574Z,2.97
2022-11-03T23:37:41.505Z,2.97
2022-11-03T23:40:09.241Z,2.80
2022-11-03T23:42:36.116Z,3.78
2022-11-03T23:45:21.570Z,2.83
2022-11-03T23:48:07.948Z,3.38
2022-11-03T23:50:35.083Z,2.83
2022-11-03T23:53:01.938Z,2.63
2022-11-03T23:55:49.036Z,3.00
2022-11-03T23:58:18.863Z,2.58
